createdAt,value
2018-04-24T00:02:07.379Z,99587.78
2018-04-24T00:04:34.913Z,99585.80
2018-04-24T00:07:02.467Z,99592.33
2018-04-24T00:09:30.018Z,99581.50
2018-04-24T00:11:57.574Z,99588.48
2018-04-24T00:14:25.116Z,99587.97
2018-04-24T00:16:52.675Z,99593.50
2018-04-24T00:19:20.226Z,99585.41
2018-04-24T00:21:47.799Z,99594.09
2018-04-24T00:24:15.352Z,99590.06
2018-04-24T00:26:42.898Z,99592.80
2018-04-24T00:29:10.436Z,99590.70
2018-04-24T00:31:37.993Z,99583.23
2018-04-24T00:34:05.540Z,99584.15
2018-04-24T00:36:33.093Z,99575.90
2018-04-24T00:39:00.710Z,99576.75
2018-04-24T00:41:28.274Z,99578.28
2018-04-24T00:43:55.828Z,99583.89
2018-04-24T00:46:23.396Z,99587.80
2018-04-24T00:48:50.923Z,99585.28
2018-04-24T00:51:18.505Z,99587.02
2018-04-24T00:53:46.034Z,99588.05
2018-04-24T00:56:13.623Z,99596.60
2018-04-24T00:58:41.143Z,99591.91
2018-04-24T01:01:08.691Z,99593.11
2018-04-24T01:03:36.386Z,99587.91
2018-04-24T01:06:03.943Z,99591.11
2018-04-24T01:08:31.524Z,99580.91
2018-04-24T01:10:59.102Z,99581.51
2018-04-24T01:13:26.744Z,99584.36
2018-04-24T01:15:54.305Z,99583.42
2018-04-24T01:18:21.831Z,99585.09
2018-04-24T01:20:49.541Z,99582.66
2018-04-24T01:23:18.054Z,99588.48
2018-04-24T01:25:45.613Z,99589.42
2018-04-24T01:28:13.142Z,99597.16
2018-04-24T01:30:40.694Z,99595.48
2018-04-24T01:33:08.218Z,99594.67
2018-04-24T01:35:35.800Z,99600.98
2018-04-24T01:38:03.326Z,99603.08
2018-04-24T01:40:30.851Z,99603.91
2018-04-24T01:42:58.406Z,99606.28
2018-04-24T01:45:25.956Z,99607.55
2018-04-24T01:47:53.513Z,99605.50
2018-04-24T01:50:21.035Z,99602.77
2018-04-24T01:52:48.586Z,99603.75
2018-04-24T01:55:16.095Z,99611.59
2018-04-24T01:57:43.642Z,99612.93
2018-04-24T02:00:11.169Z,99609.34
2018-04-24T02:02:38.752Z,99609.41
2018-04-24T02:05:06.271Z,99610.03
2018-04-24T02:07:33.821Z,99609.80
2018-04-24T02:10:01.327Z,99601.94
2018-04-24T02:12:28.873Z,99609.55
2018-04-24T02:14:56.651Z,99612.92
2018-04-24T02:17:24.410Z,99610.50
2018-04-24T02:19:51.930Z,99606.90
2018-04-24T02:22:19.509Z,99608.10
2018-04-24T02:24:49.235Z,99611.54
2018-04-24T02:27:17.019Z,99613.71
2018-04-24T02:29:44.549Z,99607.16
2018-04-24T02:32:12.126Z,99606.28
2018-04-24T02:34:39.650Z,99615.56
2018-04-24T02:37:08.561Z,99608.17
2018-04-24T02:39:36.428Z,99612.29
2018-04-24T02:42:04.008Z,99598.19
2018-04-24T02:44:31.533Z,99608.21
2018-04-24T02:46:59.108Z,99600.23
2018-04-24T02:49:26.665Z,99598.80
2018-04-24T02:51:54.344Z,99601.70
2018-04-24T02:54:21.864Z,99607.70
2018-04-24T02:56:49.767Z,99613.05
2018-04-24T02:59:17.289Z,99606.06
2018-04-24T03:01:44.887Z,99605.34
2018-04-24T03:04:12.419Z,99595.50
2018-04-24T03:06:40.004Z,99599.94
2018-04-24T03:09:07.529Z,99588.42
2018-04-24T03:11:35.130Z,99592.80
2018-04-24T03:14:02.662Z,99599.77
2018-04-24T03:16:30.235Z,99601.69
2018-04-24T03:18:57.763Z,99601.36
2018-04-24T03:21:25.288Z,99600.59
2018-04-24T03:23:52.845Z,99607.02
2018-04-24T03:26:20.388Z,99613.59
2018-04-24T03:28:48.670Z,99605.67
2018-04-24T03:31:16.198Z,99595.98
2018-04-24T03:33:43.876Z,99605.42
2018-04-24T03:36:11.403Z,99611.90
2018-04-24T03:38:38.954Z,99609.83
2018-04-24T03:41:06.483Z,99607.52
2018-04-24T03:43:34.113Z,99611.06
2018-04-24T03:46:01.636Z,99600.80
2018-04-24T03:48:29.232Z,99599.75
2018-04-24T03:50:56.819Z,99596.69
2018-04-24T03:53:24.371Z,99600.75
2018-04-24T03:55:51.920Z,99594.98
2018-04-24T03:58:19.574Z,99602.31
2018-04-24T04:00:48.729Z,99604.74
2018-04-24T04:03:16.335Z,99609.61
2018-04-24T04:05:45.446Z,99602.91
2018-04-24T04:08:13.006Z,99599.66
2018-04-24T04:10:41.878Z,99596.06
2018-04-24T04:13:10.698Z,99588.47
2018-04-24T04:15:38.237Z,99581.44
2018-04-24T04:18:17.641Z,99581.94
2018-04-24T04:20:56.943Z,99588.69
2018-04-24T04:23:36.473Z,99579.46
2018-04-24T04:26:04.099Z,99576.78
2018-04-24T04:28:31.651Z,99572.05
2018-04-24T04:31:02.156Z,99576.95
2018-04-24T04:33:29.873Z,99582.02
2018-04-24T04:35:57.408Z,99587.32
2018-04-24T04:38:25.934Z,99594.27
2018-04-24T04:40:53.557Z,99592.69
2018-04-24T04:43:21.189Z,99608.27
2018-04-24T04:45:48.774Z,99606.95
2018-04-24T04:48:16.545Z,99605.11
2018-04-24T04:50:44.423Z,99606.39
2018-04-24T04:53:12.023Z,99600.53
2018-04-24T04:55:39.626Z,99602.16
2018-04-24T04:58:07.177Z,99599.00
2018-04-24T05:00:34.737Z,99605.97
2018-04-24T05:03:02.402Z,99600.88
2018-04-24T05:05:31.481Z,99599.92
2018-04-24T05:07:59.184Z,99594.00
2018-04-24T05:10:26.783Z,99590.48
2018-04-24T05:12:54.305Z,99585.06
2018-04-24T05:15:25.424Z,99589.39
2018-04-24T05:17:53.213Z,99588.30
2018-04-24T05:20:23.948Z,99591.62
2018-04-24T05:22:51.698Z,99596.19
2018-04-24T05:25:20.054Z,99584.93
2018-04-24T05:27:49.151Z,99601.35
2018-04-24T05:30:16.733Z,99603.98
2018-04-24T05:32:44.253Z,99609.49
2018-04-24T05:35:11.809Z,99609.63
2018-04-24T05:37:39.415Z,99614.80
2018-04-24T05:40:08.575Z,99615.55
2018-04-24T05:42:36.114Z,99617.58
2018-04-24T05:45:03.693Z,99625.78
2018-04-24T05:47:31.219Z,99631.38
2018-04-24T05:49:58.802Z,99624.95
2018-04-24T05:52:26.399Z,99628.28
2018-04-24T05:54:53.926Z,99631.56
2018-04-24T05:57:23.801Z,99637.81
2018-04-24T05:59:53.927Z,99635.75
2018-04-24T06:02:22.833Z,99641.81
2018-04-24T06:04:50.609Z,99650.08
2018-04-24T06:07:18.194Z,99642.33
2018-04-24T06:09:45.739Z,99647.00
2018-04-24T06:12:13.269Z,99647.30
2018-04-24T06:14:40.823Z,99649.91
2018-04-24T06:17:08.441Z,99641.27
2018-04-24T06:19:35.993Z,99652.90
2018-04-24T06:22:03.529Z,99660.64
2018-04-24T06:24:31.103Z,99658.00
2018-04-24T06:26:58.656Z,99667.20
2018-04-24T06:29:26.233Z,99668.77
2018-04-24T06:31:53.786Z,99669.44
2018-04-24T06:34:21.358Z,99670.00
2018-04-24T06:36:49.015Z,99667.89
2018-04-24T06:39:16.665Z,99669.58
2018-04-24T06:41:46.147Z,99671.47
2018-04-24T06:44:13.669Z,99664.81
2018-04-24T06:46:41.227Z,99669.81
2018-04-24T06:49:08.824Z,99664.17
2018-04-24T06:51:36.401Z,99671.45
2018-04-24T06:54:03.935Z,99676.77
2018-04-24T06:56:34.534Z,99674.98
2018-04-24T06:59:02.134Z,99667.33
2018-04-24T07:01:29.703Z,99680.08
2018-04-24T07:03:58.688Z,99690.84
2018-04-24T07:06:26.344Z,99684.23
2018-04-24T07:08:53.791Z,99692.39
2018-04-24T07:11:21.343Z,99687.00
2018-04-24T07:13:48.895Z,99689.48
2018-04-24T07:16:18.661Z,99695.87
2018-04-24T07:18:46.530Z,99697.95
2018-04-24T07:21:14.102Z,99698.16
2018-04-24T07:23:41.656Z,99699.70
2018-04-24T07:26:09.230Z,99703.00
2018-04-24T07:28:36.762Z,99706.31
2018-04-24T07:31:04.325Z,99706.09
2018-04-24T07:33:31.841Z,99702.39
2018-04-24T07:35:59.443Z,99701.96
2018-04-24T07:38:26.967Z,99713.27
2018-04-24T07:40:54.587Z,99705.39
2018-04-24T07:43:22.125Z,99702.47
2018-04-24T07:45:49.676Z,99708.90
2018-04-24T07:48:17.230Z,99704.09
2018-04-24T07:50:44.829Z,99705.91
2018-04-24T07:53:12.434Z,99704.56
2018-04-24T07:55:39.985Z,99702.23
2018-04-24T07:58:07.514Z,99706.37
2018-04-24T08:00:35.061Z,99705.80
2018-04-24T08:03:02.571Z,99713.75
2018-04-24T08:05:30.120Z,99719.83
2018-04-24T08:07:57.643Z,99710.27
2018-04-24T08:10:25.171Z,99701.25
2018-04-24T08:12:52.719Z,99701.63
2018-04-24T08:15:22.201Z,99703.94
2018-04-24T08:17:52.967Z,99700.97
2018-04-24T08:20:21.268Z,99705.73
2018-04-24T08:22:49.394Z,99696.98
2018-04-24T08:25:18.787Z,99700.02
2018-04-24T08:27:46.381Z,99698.52
2018-04-24T08:30:13.913Z,99688.84
2018-04-24T08:32:44.511Z,99682.96
2018-04-24T08:35:13.573Z,99687.87
2018-04-24T08:37:42.865Z,99685.72
2018-04-24T08:40:11.845Z,99687.14
2018-04-24T08:42:40.693Z,99695.81
2018-04-24T08:45:10.535Z,99688.66
2018-04-24T08:47:39.384Z,99681.25
2018-04-24T08:50:07.630Z,99681.41
2018-04-24T08:52:35.288Z,99692.50
2018-04-24T08:55:05.240Z,99676.15
2018-04-24T08:57:33.138Z,99677.42
2018-04-24T09:00:01.143Z,99684.09
2018-04-24T09:02:31.500Z,99685.52
2018-04-24T09:05:03.107Z,99680.53
2018-04-24T09:07:34.646Z,99678.84
2018-04-24T09:10:05.395Z,99681.95
2018-04-24T09:12:35.263Z,99674.27
2018-04-24T09:15:02.838Z,99692.44
2018-04-24T09:17:32.729Z,99690.19
2018-04-24T09:20:01.910Z,99682.89
2018-04-24T09:22:33.304Z,99665.44
2018-04-24T09:25:04.167Z,99687.03
2018-04-24T09:27:33.497Z,99682.77
2018-04-24T09:30:04.881Z,99691.50
2018-04-24T09:32:33.466Z,99682.61
2018-04-24T09:35:01.014Z,99679.58
2018-04-24T09:37:31.385Z,99678.79
2018-04-24T09:39:59.325Z,99674.98
2018-04-24T09:42:27.127Z,99675.80
2018-04-24T09:44:54.829Z,99667.95
2018-04-24T09:47:24.295Z,99681.81
2018-04-24T09:49:53.195Z,99669.67
2018-04-24T09:52:22.278Z,99651.92
2018-04-24T09:54:51.382Z,99661.73
2018-04-24T09:57:22.475Z,99658.09
2018-04-24T09:59:51.713Z,99660.69
2018-04-24T10:02:20.222Z,99654.34
2018-04-24T10:04:50.079Z,99659.21
2018-04-24T10:07:17.721Z,99652.14
2018-04-24T10:09:45.983Z,99642.00
2018-04-24T10:12:14.216Z,99644.06
2018-04-24T10:14:42.650Z,99644.02
2018-04-24T10:17:11.374Z,99647.60
2018-04-24T10:19:39.875Z,99657.22
2018-04-24T10:22:09.113Z,99656.29
2018-04-24T10:24:36.738Z,99663.38
2018-04-24T10:27:04.286Z,99657.57
2018-04-24T10:29:31.846Z,99661.96
2018-04-24T10:32:01.023Z,99644.67
2018-04-24T10:34:30.272Z,99650.91
2018-04-24T10:37:00.701Z,99645.97
2018-04-24T10:39:28.393Z,99638.98
2018-04-24T10:41:57.943Z,99634.73
2018-04-24T10:44:26.350Z,99635.74
2018-04-24T10:46:54.756Z,99643.94
2018-04-24T10:49:23.587Z,99635.27
2018-04-24T10:51:51.513Z,99630.50
2018-04-24T10:54:19.246Z,99642.28
2018-04-24T10:56:48.199Z,99633.63
2018-04-24T10:59:16.233Z,99639.02
2018-04-24T11:01:44.352Z,99638.03
2018-04-24T11:04:12.201Z,99632.27
2018-04-24T11:06:41.351Z,99626.16
2018-04-24T11:09:10.556Z,99631.05
2018-04-24T11:11:39.463Z,99644.09
2018-04-24T11:14:07.034Z,99617.67
2018-04-24T11:16:34.790Z,99621.97
2018-04-24T11:19:02.692Z,99617.83
2018-04-24T11:21:30.716Z,99623.03
2018-04-24T11:23:58.682Z,99623.75
2018-04-24T11:26:26.721Z,99622.91
2018-04-24T11:28:54.543Z,99622.52
2018-04-24T11:31:22.286Z,99608.27
2018-04-24T11:33:49.997Z,99618.79
2018-04-24T11:36:17.531Z,99603.18
2018-04-24T11:38:45.356Z,99596.39
2018-04-24T11:41:14.783Z,99593.37
2018-04-24T11:43:42.861Z,99588.67
2018-04-24T11:46:11.962Z,99590.52
2018-04-24T11:48:41.299Z,99579.57
2018-04-24T11:51:09.918Z,99575.14
2018-04-24T11:53:38.421Z,99576.77
2018-04-24T11:56:06.416Z,99569.47
2018-04-24T11:58:34.165Z,99578.02
2018-04-24T12:01:01.702Z,99570.55
2018-04-24T12:03:29.354Z,99563.56
2018-04-24T12:05:56.881Z,99570.14
2018-04-24T12:08:24.663Z,99570.70
2018-04-24T12:10:52.681Z,99564.53
2018-04-24T12:13:20.673Z,99542.16
2018-04-24T12:15:49.023Z,99560.41
2018-04-24T12:18:16.765Z,99555.86
2018-04-24T12:20:44.321Z,99559.21
2018-04-24T12:23:11.845Z,99555.08
2018-04-24T12:25:39.403Z,99548.03
2018-04-24T12:28:06.925Z,99549.28
2018-04-24T12:30:34.487Z,99543.03
2018-04-24T12:35:37.849Z,99535.15
2018-04-24T12:38:07.506Z,99534.71
2018-04-24T12:40:35.491Z,99529.86
2018-04-24T12:43:03.917Z,99528.08
2018-04-24T12:45:34.473Z,99522.94
2018-04-24T12:48:02.420Z,99509.54
2018-04-24T12:50:31.045Z,99509.97
2018-04-24T12:53:00.999Z,99503.20
2018-04-24T12:55:30.449Z,99503.15
2018-04-24T12:58:00.015Z,99499.88
2018-04-24T13:00:28.473Z,99497.30
2018-04-24T13:02:58.856Z,99488.33
2018-04-24T13:05:27.482Z,99489.89
2018-04-24T13:07:56.835Z,99483.00
2018-04-24T13:10:27.759Z,99475.62
2018-04-24T13:12:55.470Z,99477.86
2018-04-24T13:15:25.829Z,99476.89
2018-04-24T13:17:54.145Z,99468.50
2018-04-24T13:23:00.927Z,99472.70
2018-04-24T13:25:34.566Z,99472.75
2018-04-24T13:28:04.061Z,99471.71
2018-04-24T13:30:35.633Z,99459.18
2018-04-24T13:33:05.554Z,99459.00
2018-04-24T13:35:33.639Z,99458.44
2018-04-24T13:38:04.868Z,99450.21
2018-04-24T13:40:33.614Z,99446.06
2018-04-24T13:43:02.400Z,99458.83
2018-04-24T13:45:30.205Z,99450.54
2018-04-24T13:47:57.774Z,99433.16
2018-04-24T13:50:26.299Z,99431.22
2018-04-24T13:52:53.905Z,99440.19
2018-04-24T13:55:24.053Z,99430.84
2018-04-24T13:57:51.558Z,99426.84
2018-04-24T14:00:21.672Z,99423.38
2018-04-24T14:02:52.937Z,99417.42
2018-04-24T14:05:21.226Z,99410.84
2018-04-24T14:07:50.526Z,99400.13
2018-04-24T14:10:20.721Z,99391.86
2018-04-24T14:12:51.438Z,99391.08
2018-04-24T14:15:19.373Z,99382.66
2018-04-24T14:17:50.232Z,99380.95
2018-04-24T14:20:19.179Z,99375.71
2018-04-24T14:22:48.535Z,99374.03
2018-04-24T14:25:16.205Z,99367.64
2018-04-24T14:27:43.733Z,99362.68
2018-04-24T14:30:11.289Z,99366.64
2018-04-24T14:32:38.837Z,99356.44
2018-04-24T14:35:06.386Z,99354.92
2018-04-24T14:37:33.917Z,99351.84
2018-04-24T14:40:01.599Z,99356.95
2018-04-24T14:42:29.155Z,99348.25
2018-04-24T14:44:56.676Z,99344.53
2018-04-24T14:47:24.226Z,99347.92
2018-04-24T14:49:51.808Z,99344.01
2018-04-24T14:52:19.395Z,99339.52
2018-04-24T14:54:46.960Z,99336.81
2018-04-24T14:57:14.541Z,99324.17
2018-04-24T14:59:42.071Z,99319.88
2018-04-24T15:02:09.614Z,99327.16
2018-04-24T15:04:37.142Z,99325.13
2018-04-24T15:07:04.737Z,99309.25
2018-04-24T15:09:32.249Z,99315.13
2018-04-24T15:11:59.800Z,99311.53
2018-04-24T15:14:27.325Z,99306.83
2018-04-24T15:16:54.877Z,99308.31
2018-04-24T15:19:22.443Z,99313.98
2018-04-24T15:21:50.005Z,99310.62
2018-04-24T15:24:17.533Z,99314.05
2018-04-24T15:26:45.085Z,99304.34
2018-04-24T15:29:12.593Z,99309.16
2018-04-24T15:31:40.142Z,99303.73
2018-04-24T15:34:07.666Z,99310.28
2018-04-24T15:36:35.256Z,99308.00
2018-04-24T15:39:07.608Z,99303.27
2018-04-24T15:41:45.262Z,99307.18
2018-04-24T15:44:16.846Z,99295.70
2018-04-24T15:46:51.210Z,99300.50
2018-04-24T15:49:30.297Z,99294.23
2018-04-24T15:52:02.815Z,99295.13
2018-04-24T15:54:34.719Z,99290.05
2018-04-24T15:57:06.859Z,99285.81
2018-04-24T15:59:39.126Z,99284.95
2018-04-24T16:02:11.534Z,99291.03
2018-04-24T16:04:43.926Z,99275.37
2018-04-24T16:07:15.685Z,99276.05
2018-04-24T16:09:48.548Z,99277.01
2018-04-24T16:12:21.238Z,99274.16
2018-04-24T16:14:52.853Z,99278.41
2018-04-24T16:20:02.392Z,99268.09
2018-04-24T16:22:38.004Z,99263.17
2018-04-24T16:25:09.088Z,99265.26
2018-04-24T16:27:44.601Z,99273.75
2018-04-24T16:30:15.587Z,99259.53
2018-04-24T16:32:50.924Z,99253.23
2018-04-24T16:35:25.327Z,99260.48
2018-04-24T16:37:55.669Z,99251.77
2018-04-24T16:40:28.383Z,99250.52
2018-04-24T16:42:58.269Z,99241.86
2018-04-24T16:45:29.520Z,99241.83
2018-04-24T16:48:01.354Z,99243.34
2018-04-24T16:50:33.340Z,99242.58
2018-04-24T16:53:09.987Z,99239.11
2018-04-24T16:55:40.671Z,99234.17
2018-04-24T16:58:11.964Z,99232.61
2018-04-24T17:00:39.697Z,99236.91
2018-04-24T17:03:07.251Z,99227.16
2018-04-24T17:05:34.772Z,99227.28
2018-04-24T17:08:02.319Z,99223.54
2018-04-24T17:10:29.849Z,99220.99
2018-04-24T17:12:57.430Z,99221.16
2018-04-24T17:15:24.953Z,99218.08
2018-04-24T17:17:56.087Z,99204.30
2018-04-24T17:20:23.971Z,99210.89
2018-04-24T17:22:55.332Z,99213.67
2018-04-24T17:25:25.240Z,99209.73
2018-04-24T17:27:59.869Z,99207.48
2018-04-24T17:30:30.364Z,99195.77
2018-04-24T17:33:01.622Z,99198.08
2018-04-24T17:35:36.327Z,99199.49
2018-04-24T17:38:08.225Z,99199.10
2018-04-24T17:40:40.407Z,99197.20
2018-04-24T17:43:17.708Z,99196.98
2018-04-24T17:45:46.096Z,99193.89
2018-04-24T17:48:15.759Z,99191.00
2018-04-24T17:50:48.582Z,99195.44
2018-04-24T17:56:02.622Z,99190.38
2018-04-24T18:01:22.278Z,99191.06
2018-04-24T18:03:57.172Z,99185.97
2018-04-24T18:06:26.725Z,99183.84
2018-04-24T18:08:54.930Z,99188.38
2018-04-24T18:11:22.486Z,99190.16
2018-04-24T18:13:50.029Z,99184.33
2018-04-24T18:16:17.557Z,99186.55
2018-04-24T18:18:45.114Z,99182.73
2018-04-24T18:21:12.665Z,99181.32
2018-04-24T18:23:40.217Z,99187.19
2018-04-24T18:26:07.744Z,99185.27
2018-04-24T18:28:35.302Z,99179.03
2018-04-24T18:31:02.849Z,99172.86
2018-04-24T18:33:30.418Z,99174.36
2018-04-24T18:35:57.953Z,99173.97
2018-04-24T18:38:25.505Z,99170.13
2018-04-24T18:40:53.129Z,99173.53
2018-04-24T18:43:20.687Z,99174.98
2018-04-24T18:45:48.212Z,99170.86
2018-04-24T18:48:15.881Z,99166.23
2018-04-24T18:50:43.428Z,99162.30
2018-04-24T18:53:11.612Z,99163.25
2018-04-24T18:55:39.788Z,99163.63
2018-04-24T18:58:07.372Z,99161.80
2018-04-24T19:00:36.139Z,99161.34
2018-04-24T19:03:03.826Z,99162.31
2018-04-24T19:05:32.950Z,99164.70
2018-04-24T19:08:00.480Z,99160.17
2018-04-24T19:10:28.975Z,99155.54
2018-04-24T19:12:57.215Z,99156.92
2018-04-24T19:15:27.111Z,99154.11
2018-04-24T19:17:55.133Z,99153.72
2018-04-24T19:20:23.106Z,99155.55
2018-04-24T19:22:51.011Z,99154.54
2018-04-24T19:25:24.662Z,99156.05
2018-04-24T19:27:52.246Z,99158.75
2018-04-24T19:30:23.202Z,99153.99
2018-04-24T19:32:51.333Z,99162.13
2018-04-24T19:35:24.814Z,99153.66
2018-04-24T19:37:53.137Z,99152.02
2018-04-24T19:40:26.163Z,99151.83
2018-04-24T19:42:54.037Z,99162.61
2018-04-24T19:45:22.508Z,99164.92
2018-04-24T19:47:50.787Z,99164.94
2018-04-24T19:50:20.292Z,99165.66
2018-04-24T19:52:48.538Z,99165.81
2018-04-24T19:55:21.834Z,99168.94
2018-04-24T19:57:49.993Z,99162.23
2018-04-24T20:00:18.253Z,99164.66
2018-04-24T20:02:56.871Z,99163.79
2018-04-24T20:05:27.430Z,99168.58
2018-04-24T20:07:57.085Z,99166.41
2018-04-24T20:10:27.979Z,99165.96
2018-04-24T20:12:58.482Z,99161.27
2018-04-24T20:15:42.791Z,99158.88
2018-04-24T20:18:10.908Z,99153.95
2018-04-24T20:20:38.421Z,99150.24
2018-04-24T20:23:06.422Z,99151.77
2018-04-24T20:25:38.947Z,99151.33
2018-04-24T20:28:09.545Z,99149.14
2018-04-24T20:30:37.670Z,99152.98
2018-04-24T20:33:05.209Z,99149.44
2018-04-24T20:35:32.734Z,99151.92
2018-04-24T20:38:00.413Z,99141.44
2018-04-24T20:40:30.279Z,99146.27
2018-04-24T20:42:58.020Z,99137.22
2018-04-24T20:45:25.716Z,99145.14
2018-04-24T20:47:55.778Z,99140.11
2018-04-24T20:50:27.243Z,99141.55
2018-04-24T20:52:55.824Z,99139.73
2018-04-24T20:55:24.593Z,99138.33
2018-04-24T20:57:54.383Z,99142.97
2018-04-24T21:00:24.346Z,99136.69
2018-04-24T21:02:52.512Z,99138.42
2018-04-24T21:05:20.106Z,99134.19
2018-04-24T21:07:49.789Z,99131.77
2018-04-24T21:10:19.311Z,99124.66
2018-04-24T21:12:47.039Z,99137.64
2018-04-24T21:15:14.567Z,99131.52
2018-04-24T21:17:42.094Z,99122.05
2018-04-24T21:20:09.674Z,99118.23
2018-04-24T21:22:37.200Z,99122.30
2018-04-24T21:25:05.652Z,99117.31
2018-04-24T21:27:34.473Z,99112.05
2018-04-24T21:30:03.403Z,99106.33
2018-04-24T21:32:31.456Z,99111.57
2018-04-24T21:34:59.182Z,99110.66
2018-04-24T21:37:27.563Z,99111.74
2018-04-24T21:39:55.789Z,99108.02
2018-04-24T21:42:24.288Z,99110.48
2018-04-24T21:44:51.841Z,99102.19
2018-04-24T21:47:19.946Z,99102.15
2018-04-24T21:49:47.606Z,99104.72
2018-04-24T21:52:15.676Z,99104.66
2018-04-24T21:54:43.432Z,99097.64
2018-04-24T21:57:11.104Z,99093.13
2018-04-24T21:59:38.663Z,99093.47
2018-04-24T22:02:06.611Z,99098.62
2018-04-24T22:04:34.266Z,99094.11
2018-04-24T22:07:01.894Z,99091.09
2018-04-24T22:09:29.744Z,99097.60
2018-04-24T22:11:57.492Z,99088.53
2018-04-24T22:14:25.272Z,99079.58
2018-04-24T22:16:52.925Z,99082.21
2018-04-24T22:19:20.875Z,99081.84
2018-04-24T22:21:48.723Z,99077.51
2018-04-24T22:24:16.357Z,99078.17
2018-04-24T22:26:44.057Z,99083.66
2018-04-24T22:29:11.581Z,99075.80
2018-04-24T22:31:40.186Z,99073.91
2018-04-24T22:34:08.077Z,99079.08
2018-04-24T22:36:35.817Z,99074.83
2018-04-24T22:39:03.782Z,99074.45
2018-04-24T22:41:31.519Z,99073.25
2018-04-24T22:43:59.093Z,99067.46
2018-04-24T22:46:27.419Z,99072.05
2018-04-24T22:48:55.177Z,99067.73
2018-04-24T22:51:22.705Z,99072.12
2018-04-24T22:53:50.258Z,99072.60
2018-04-24T22:56:17.766Z,99069.97
2018-04-24T22:58:45.435Z,99073.00
2018-04-24T23:01:12.954Z,99064.64
2018-04-24T23:03:40.544Z,99064.44
2018-04-24T23:06:08.209Z,99060.59
2018-04-24T23:08:35.757Z,99057.39
2018-04-24T23:11:15.714Z,99059.76
2018-04-24T23:13:55.049Z,99061.14
2018-04-24T23:16:34.581Z,99059.15
2018-04-24T23:19:14.155Z,99056.52
2018-04-24T23:21:41.151Z,99054.60
2018-04-24T23:24:08.725Z,99057.52
2018-04-24T23:26:36.234Z,99051.67
2018-04-24T23:29:04.059Z,99057.09
2018-04-24T23:31:31.615Z,99047.20
2018-04-24T23:33:59.267Z,99052.56
2018-04-24T23:36:26.793Z,99052.94
2018-04-24T23:38:54.445Z,99046.98
2018-04-24T23:41:21.973Z,99039.98
2018-04-24T23:43:49.526Z,99040.03
2018-04-24T23:46:17.028Z,99032.31
2018-04-24T23:48:44.580Z,99034.45
2018-04-24T23:51:12.109Z,99026.25
2018-04-24T23:53:39.665Z,99025.26
2018-04-24T23:56:07.189Z,99024.24
2018-04-24T23:58:34.732Z,99026.16
